sensor_id;sensor_type;location;lat;lon;timestamp;P1;durP1;ratioP1;P2;durP2;ratioP2
64938;SDS011;51453;47.738;7.420;2023-05-09T00:00:43;26.10;;;14.88;;
64938;SDS011;51453;47.738;7.420;2023-05-09T00:03:09;22.60;;;14.65;;
64938;SDS011;51453;47.738;7.420;2023-05-09T00:05:36;18.80;;;12.38;;
64938;SDS011;51453;47.738;7.420;2023-05-09T00:08:02;18.80;;;12.95;;
64938;SDS011;51453;47.738;7.420;2023-05-09T00:10:28;18.08;;;11.82;;
64938;SDS011;51453;47.738;7.420;2023-05-09T00:12:54;14.32;;;11.45;;
64938;SDS011;51453;47.738;7.420;2023-05-09T00:15:21;19.40;;;12.43;;
64938;SDS011;51453;47.738;7.420;2023-05-09T00:17:47;14.77;;;9.90;;
64938;SDS011;51453;47.738;7.420;2023-05-09T00:20:14;20.52;;;12.35;;
64938;SDS011;51453;47.738;7.420;2023-05-09T00:22:40;15.32;;;10.88;;
64938;SDS011;51453;47.738;7.420;2023-05-09T00:25:06;17.05;;;12.10;;
64938;SDS011;51453;47.738;7.420;2023-05-09T00:27:32;16.48;;;11.23;;
64938;SDS011;51453;47.738;7.420;2023-05-09T00:29:58;12.32;;;8.90;;
64938;SDS011;51453;47.738;7.420;2023-05-09T00:32:24;18.80;;;12.32;;
64938;SDS011;51453;47.738;7.420;2023-05-09T00:34:50;16.83;;;11.73;;
64938;SDS011;51453;47.738;7.420;2023-05-09T00:37:16;15.68;;;11.80;;
64938;SDS011;51453;47.738;7.420;2023-05-09T00:39:43;25.63;;;14.93;;
64938;SDS011;51453;47.738;7.420;2023-05-09T00:42:09;18.73;;;12.35;;
64938;SDS011;51453;47.738;7.420;2023-05-09T00:44:35;19.55;;;13.25;;
64938;SDS011;51453;47.738;7.420;2023-05-09T00:47:01;15.40;;;12.55;;
64938;SDS011;51453;47.738;7.420;2023-05-09T00:49:26;26.75;;;16.00;;
64938;SDS011;51453;47.738;7.420;2023-05-09T00:51:52;23.02;;;15.15;;
64938;SDS011;51453;47.738;7.420;2023-05-09T00:54:19;32.25;;;18.88;;
64938;SDS011;51453;47.738;7.420;2023-05-09T00:56:45;30.15;;;18.05;;
64938;SDS011;51453;47.738;7.420;2023-05-09T00:59:11;20.98;;;15.48;;
64938;SDS011;51453;47.738;7.420;2023-05-09T01:01:36;35.45;;;18.88;;
64938;SDS011;51453;47.738;7.420;2023-05-09T01:04:02;31.52;;;20.27;;
64938;SDS011;51453;47.738;7.420;2023-05-09T01:06:33;32.65;;;18.40;;
64938;SDS011;51453;47.738;7.420;2023-05-09T01:09:23;46.33;;;23.85;;
64938;SDS011;51453;47.738;7.420;2023-05-09T01:15:02;28.35;;;18.30;;
64938;SDS011;51453;47.738;7.420;2023-05-09T01:20:27;37.22;;;22.15;;
64938;SDS011;51453;47.738;7.420;2023-05-09T01:22:59;27.92;;;18.08;;
64938;SDS011;51453;47.738;7.420;2023-05-09T01:31:01;20.50;;;15.07;;
64938;SDS011;51453;47.738;7.420;2023-05-09T01:33:28;27.80;;;17.80;;
64938;SDS011;51453;47.738;7.420;2023-05-09T01:35:58;19.38;;;14.15;;
64938;SDS011;51453;47.738;7.420;2023-05-09T01:38:33;30.63;;;17.60;;
64938;SDS011;51453;47.738;7.420;2023-05-09T01:41:03;31.30;;;17.08;;
64938;SDS011;51453;47.738;7.420;2023-05-09T01:43:33;26.77;;;18.10;;
64938;SDS011;51453;47.738;7.420;2023-05-09T01:46:00;33.50;;;18.38;;
64938;SDS011;51453;47.738;7.420;2023-05-09T01:48:28;29.27;;;16.67;;
64938;SDS011;51453;47.738;7.420;2023-05-09T01:50:56;25.75;;;16.20;;
64938;SDS011;51453;47.738;7.420;2023-05-09T01:53:23;18.55;;;13.75;;
64938;SDS011;51453;47.738;7.420;2023-05-09T01:55:51;32.50;;;17.90;;
64938;SDS011;51453;47.738;7.420;2023-05-09T01:58:19;24.92;;;16.10;;
64938;SDS011;51453;47.738;7.420;2023-05-09T02:00:46;22.45;;;16.15;;
64938;SDS011;51453;47.738;7.420;2023-05-09T02:03:12;24.60;;;16.17;;
64938;SDS011;51453;47.738;7.420;2023-05-09T02:05:39;27.60;;;17.17;;
64938;SDS011;51453;47.738;7.420;2023-05-09T02:08:06;21.83;;;15.10;;
64938;SDS011;51453;47.738;7.420;2023-05-09T02:10:32;35.78;;;19.30;;
64938;SDS011;51453;47.738;7.420;2023-05-09T02:12:59;34.03;;;19.35;;
64938;SDS011;51453;47.738;7.420;2023-05-09T02:15:25;21.20;;;14.85;;
64938;SDS011;51453;47.738;7.420;2023-05-09T02:17:51;27.20;;;16.92;;
64938;SDS011;51453;47.738;7.420;2023-05-09T02:20:17;30.23;;;17.90;;
64938;SDS011;51453;47.738;7.420;2023-05-09T02:22:43;25.08;;;17.15;;
64938;SDS011;51453;47.738;7.420;2023-05-09T02:25:09;35.30;;;19.50;;
64938;SDS011;51453;47.738;7.420;2023-05-09T02:27:39;32.67;;;18.80;;
64938;SDS011;51453;47.738;7.420;2023-05-09T02:30:05;19.95;;;14.93;;
64938;SDS011;51453;47.738;7.420;2023-05-09T02:32:35;31.77;;;19.42;;
64938;SDS011;51453;47.738;7.420;2023-05-09T02:35:02;29.70;;;18.13;;
64938;SDS011;51453;47.738;7.420;2023-05-09T02:37:30;29.05;;;17.38;;
64938;SDS011;51453;47.738;7.420;2023-05-09T02:39:56;29.52;;;17.50;;
64938;SDS011;51453;47.738;7.420;2023-05-09T02:42:25;21.17;;;15.43;;
64938;SDS011;51453;47.738;7.420;2023-05-09T02:44:54;22.30;;;15.23;;
64938;SDS011;51453;47.738;7.420;2023-05-09T02:47:20;18.90;;;14.52;;
64938;SDS011;51453;47.738;7.420;2023-05-09T02:49:46;29.27;;;17.73;;
64938;SDS011;51453;47.738;7.420;2023-05-09T02:52:12;21.80;;;15.32;;
64938;SDS011;51453;47.738;7.420;2023-05-09T02:54:38;21.23;;;15.30;;
64938;SDS011;51453;47.738;7.420;2023-05-09T02:57:04;24.38;;;15.82;;
64938;SDS011;51453;47.738;7.420;2023-05-09T02:59:30;21.73;;;15.15;;
64938;SDS011;51453;47.738;7.420;2023-05-09T03:01:56;21.52;;;15.63;;
64938;SDS011;51453;47.738;7.420;2023-05-09T03:04:22;27.73;;;16.70;;
64938;SDS011;51453;47.738;7.420;2023-05-09T03:06:49;25.17;;;16.05;;
64938;SDS011;51453;47.738;7.420;2023-05-09T03:09:15;18.58;;;14.50;;
64938;SDS011;51453;47.738;7.420;2023-05-09T03:11:41;28.33;;;15.40;;
64938;SDS011;51453;47.738;7.420;2023-05-09T03:14:06;20.88;;;14.43;;
64938;SDS011;51453;47.738;7.420;2023-05-09T03:16:32;21.30;;;15.13;;
64938;SDS011;51453;47.738;7.420;2023-05-09T03:18:58;22.73;;;14.82;;
64938;SDS011;51453;47.738;7.420;2023-05-09T03:21:24;20.25;;;13.88;;
64938;SDS011;51453;47.738;7.420;2023-05-09T03:23:49;23.40;;;14.10;;
64938;SDS011;51453;47.738;7.420;2023-05-09T03:26:15;21.40;;;13.70;;
64938;SDS011;51453;47.738;7.420;2023-05-09T03:28:41;16.40;;;12.40;;
64938;SDS011;51453;47.738;7.420;2023-05-09T03:31:06;25.70;;;15.55;;
64938;SDS011;51453;47.738;7.420;2023-05-09T03:33:32;20.08;;;13.05;;
64938;SDS011;51453;47.738;7.420;2023-05-09T03:35:57;25.65;;;16.63;;
64938;SDS011;51453;47.738;7.420;2023-05-09T03:38:23;27.27;;;15.82;;
64938;SDS011;51453;47.738;7.420;2023-05-09T03:40:49;21.10;;;15.00;;
64938;SDS011;51453;47.738;7.420;2023-05-09T03:43:15;22.95;;;15.02;;
64938;SDS011;51453;47.738;7.420;2023-05-09T03:45:41;23.00;;;15.00;;
64938;SDS011;51453;47.738;7.420;2023-05-09T03:48:07;20.30;;;14.68;;
64938;SDS011;51453;47.738;7.420;2023-05-09T03:50:34;27.52;;;16.08;;
64938;SDS011;51453;47.738;7.420;2023-05-09T03:53:00;23.65;;;15.02;;
64938;SDS011;51453;47.738;7.420;2023-05-09T03:55:26;26.92;;;16.45;;
64938;SDS011;51453;47.738;7.420;2023-05-09T03:57:52;16.80;;;12.77;;
64938;SDS011;51453;47.738;7.420;2023-05-09T04:00:18;25.50;;;16.15;;
64938;SDS011;51453;47.738;7.420;2023-05-09T04:02:44;18.92;;;13.80;;
64938;SDS011;51453;47.738;7.420;2023-05-09T04:05:10;27.30;;;15.43;;
64938;SDS011;51453;47.738;7.420;2023-05-09T04:07:36;25.58;;;16.98;;
64938;SDS011;51453;47.738;7.420;2023-05-09T04:10:01;22.85;;;15.73;;
64938;SDS011;51453;47.738;7.420;2023-05-09T04:12:27;26.23;;;15.85;;
64938;SDS011;51453;47.738;7.420;2023-05-09T04:14:53;25.98;;;15.38;;
64938;SDS011;51453;47.738;7.420;2023-05-09T04:17:18;17.65;;;14.20;;
64938;SDS011;51453;47.738;7.420;2023-05-09T04:19:44;23.40;;;15.00;;
64938;SDS011;51453;47.738;7.420;2023-05-09T04:22:10;29.92;;;15.70;;
64938;SDS011;51453;47.738;7.420;2023-05-09T04:24:35;23.45;;;14.70;;
64938;SDS011;51453;47.738;7.420;2023-05-09T04:27:01;22.30;;;14.95;;
64938;SDS011;51453;47.738;7.420;2023-05-09T04:29:26;27.45;;;15.32;;
64938;SDS011;51453;47.738;7.420;2023-05-09T04:31:52;20.10;;;13.52;;
64938;SDS011;51453;47.738;7.420;2023-05-09T04:34:18;27.27;;;14.07;;
64938;SDS011;51453;47.738;7.420;2023-05-09T04:36:43;19.48;;;13.23;;
64938;SDS011;51453;47.738;7.420;2023-05-09T04:39:09;20.42;;;13.05;;
64938;SDS011;51453;47.738;7.420;2023-05-09T04:41:35;22.35;;;13.80;;
64938;SDS011;51453;47.738;7.420;2023-05-09T04:44:01;19.83;;;12.23;;
64938;SDS011;51453;47.738;7.420;2023-05-09T04:46:27;28.17;;;14.55;;
64938;SDS011;51453;47.738;7.420;2023-05-09T04:48:52;21.83;;;14.25;;
64938;SDS011;51453;47.738;7.420;2023-05-09T04:51:18;23.83;;;14.95;;
64938;SDS011;51453;47.738;7.420;2023-05-09T04:53:44;23.13;;;15.43;;
64938;SDS011;51453;47.738;7.420;2023-05-09T04:56:10;30.00;;;16.88;;
64938;SDS011;51453;47.738;7.420;2023-05-09T04:58:35;18.95;;;13.07;;
64938;SDS011;51453;47.738;7.420;2023-05-09T05:01:02;21.45;;;13.57;;
64938;SDS011;51453;47.738;7.420;2023-05-09T05:03:29;21.02;;;14.05;;
64938;SDS011;51453;47.738;7.420;2023-05-09T05:05:55;27.90;;;16.13;;
64938;SDS011;51453;47.738;7.420;2023-05-09T05:08:21;19.13;;;14.68;;
64938;SDS011;51453;47.738;7.420;2023-05-09T05:10:46;34.03;;;18.00;;
64938;SDS011;51453;47.738;7.420;2023-05-09T05:13:13;21.52;;;14.35;;
64938;SDS011;51453;47.738;7.420;2023-05-09T05:15:39;25.30;;;16.38;;
64938;SDS011;51453;47.738;7.420;2023-05-09T05:18:05;35.70;;;18.30;;
64938;SDS011;51453;47.738;7.420;2023-05-09T05:20:31;20.27;;;15.13;;
64938;SDS011;51453;47.738;7.420;2023-05-09T05:22:57;27.00;;;17.08;;
64938;SDS011;51453;47.738;7.420;2023-05-09T05:25:25;18.58;;;14.43;;
64938;SDS011;51453;47.738;7.420;2023-05-09T05:27:51;22.60;;;15.98;;
64938;SDS011;51453;47.738;7.420;2023-05-09T05:30:17;23.15;;;15.80;;
64938;SDS011;51453;47.738;7.420;2023-05-09T05:32:43;27.73;;;17.10;;
64938;SDS011;51453;47.738;7.420;2023-05-09T05:35:09;23.00;;;14.32;;
64938;SDS011;51453;47.738;7.420;2023-05-09T05:37:38;32.42;;;17.30;;
64938;SDS011;51453;47.738;7.420;2023-05-09T05:40:04;22.52;;;13.85;;
64938;SDS011;51453;47.738;7.420;2023-05-09T05:42:30;26.10;;;13.82;;
64938;SDS011;51453;47.738;7.420;2023-05-09T05:44:56;19.90;;;14.32;;
64938;SDS011;51453;47.738;7.420;2023-05-09T05:47:30;17.80;;;12.20;;
64938;SDS011;51453;47.738;7.420;2023-05-09T05:49:57;18.88;;;12.27;;
64938;SDS011;51453;47.738;7.420;2023-05-09T05:52:23;18.55;;;12.60;;
64938;SDS011;51453;47.738;7.420;2023-05-09T05:54:48;18.27;;;12.93;;
64938;SDS011;51453;47.738;7.420;2023-05-09T05:57:14;19.15;;;12.98;;
64938;SDS011;51453;47.738;7.420;2023-05-09T05:59:40;18.80;;;11.98;;
64938;SDS011;51453;47.738;7.420;2023-05-09T06:02:05;18.05;;;12.57;;
64938;SDS011;51453;47.738;7.420;2023-05-09T06:04:31;20.20;;;12.35;;
64938;SDS011;51453;47.738;7.420;2023-05-09T06:06:56;13.98;;;10.93;;
64938;SDS011;51453;47.738;7.420;2023-05-09T06:09:22;20.17;;;13.38;;
64938;SDS011;51453;47.738;7.420;2023-05-09T06:11:48;18.92;;;13.88;;
64938;SDS011;51453;47.738;7.420;2023-05-09T06:14:13;18.52;;;13.30;;
64938;SDS011;51453;47.738;7.420;2023-05-09T06:16:39;22.08;;;13.80;;
64938;SDS011;51453;47.738;7.420;2023-05-09T06:19:05;17.50;;;12.75;;
64938;SDS011;51453;47.738;7.420;2023-05-09T06:21:31;15.02;;;12.48;;
64938;SDS011;51453;47.738;7.420;2023-05-09T06:23:58;15.40;;;11.73;;
64938;SDS011;51453;47.738;7.420;2023-05-09T06:26:23;17.30;;;10.57;;
64938;SDS011;51453;47.738;7.420;2023-05-09T06:28:50;16.10;;;10.90;;
64938;SDS011;51453;47.738;7.420;2023-05-09T06:31:15;13.60;;;8.68;;
64938;SDS011;51453;47.738;7.420;2023-05-09T06:33:41;13.82;;;8.55;;
64938;SDS011;51453;47.738;7.420;2023-05-09T06:36:07;9.98;;;8.50;;
64938;SDS011;51453;47.738;7.420;2023-05-09T06:38:32;15.80;;;9.43;;
64938;SDS011;51453;47.738;7.420;2023-05-09T06:40:59;9.60;;;7.85;;
64938;SDS011;51453;47.738;7.420;2023-05-09T06:43:24;10.98;;;7.43;;
64938;SDS011;51453;47.738;7.420;2023-05-09T06:45:50;13.27;;;7.30;;
64938;SDS011;51453;47.738;7.420;2023-05-09T06:48:16;10.30;;;7.43;;
64938;SDS011;51453;47.738;7.420;2023-05-09T06:50:42;10.15;;;6.35;;
64938;SDS011;51453;47.738;7.420;2023-05-09T06:53:07;9.77;;;6.55;;
64938;SDS011;51453;47.738;7.420;2023-05-09T06:55:33;7.22;;;6.07;;
64938;SDS011;51453;47.738;7.420;2023-05-09T06:57:59;8.82;;;6.90;;
64938;SDS011;51453;47.738;7.420;2023-05-09T07:00:24;8.30;;;5.70;;
64938;SDS011;51453;47.738;7.420;2023-05-09T07:02:50;6.82;;;5.43;;
64938;SDS011;51453;47.738;7.420;2023-05-09T07:05:15;6.95;;;4.72;;
64938;SDS011;51453;47.738;7.420;2023-05-09T07:07:41;7.82;;;5.22;;
64938;SDS011;51453;47.738;7.420;2023-05-09T07:10:07;12.68;;;5.35;;
64938;SDS011;51453;47.738;7.420;2023-05-09T07:12:34;6.47;;;5.22;;
64938;SDS011;51453;47.738;7.420;2023-05-09T07:14:59;5.82;;;4.57;;
64938;SDS011;51453;47.738;7.420;2023-05-09T07:17:25;11.60;;;4.32;;
64938;SDS011;51453;47.738;7.420;2023-05-09T07:19:51;14.57;;;5.13;;
64938;SDS011;51453;47.738;7.420;2023-05-09T07:22:16;8.35;;;4.50;;
64938;SDS011;51453;47.738;7.420;2023-05-09T07:24:42;7.35;;;4.70;;
64938;SDS011;51453;47.738;7.420;2023-05-09T07:27:10;10.00;;;4.80;;
64938;SDS011;51453;47.738;7.420;2023-05-09T07:29:36;6.00;;;3.95;;
64938;SDS011;51453;47.738;7.420;2023-05-09T07:32:01;4.60;;;3.22;;
64938;SDS011;51453;47.738;7.420;2023-05-09T07:34:27;3.95;;;3.30;;
64938;SDS011;51453;47.738;7.420;2023-05-09T07:36:53;3.65;;;3.00;;
64938;SDS011;51453;47.738;7.420;2023-05-09T07:39:18;5.40;;;3.08;;
64938;SDS011;51453;47.738;7.420;2023-05-09T07:41:44;5.70;;;3.60;;
64938;SDS011;51453;47.738;7.420;2023-05-09T07:44:09;4.22;;;3.17;;
64938;SDS011;51453;47.738;7.420;2023-05-09T07:46:35;6.70;;;3.10;;
64938;SDS011;51453;47.738;7.420;2023-05-09T07:49:02;3.75;;;2.90;;
64938;SDS011;51453;47.738;7.420;2023-05-09T07:51:28;5.43;;;3.83;;
64938;SDS011;51453;47.738;7.420;2023-05-09T07:53:53;5.60;;;4.03;;
64938;SDS011;51453;47.738;7.420;2023-05-09T07:56:20;4.72;;;4.28;;
64938;SDS011;51453;47.738;7.420;2023-05-09T07:58:47;5.38;;;4.00;;
64938;SDS011;51453;47.738;7.420;2023-05-09T08:01:13;6.93;;;4.05;;
64938;SDS011;51453;47.738;7.420;2023-05-09T08:03:39;5.40;;;4.15;;
64938;SDS011;51453;47.738;7.420;2023-05-09T08:06:05;6.32;;;4.28;;
64938;SDS011;51453;47.738;7.420;2023-05-09T08:08:31;4.43;;;3.88;;
64938;SDS011;51453;47.738;7.420;2023-05-09T08:10:56;4.25;;;3.58;;
64938;SDS011;51453;47.738;7.420;2023-05-09T08:13:22;5.38;;;4.05;;
64938;SDS011;51453;47.738;7.420;2023-05-09T08:15:48;7.93;;;3.75;;
64938;SDS011;51453;47.738;7.420;2023-05-09T08:18:13;5.90;;;3.50;;
64938;SDS011;51453;47.738;7.420;2023-05-09T08:20:39;5.28;;;3.90;;
64938;SDS011;51453;47.738;7.420;2023-05-09T08:23:05;3.92;;;3.53;;
64938;SDS011;51453;47.738;7.420;2023-05-09T08:25:31;8.25;;;3.45;;
64938;SDS011;51453;47.738;7.420;2023-05-09T08:27:57;4.68;;;3.40;;
64938;SDS011;51453;47.738;7.420;2023-05-09T08:30:23;6.55;;;3.78;;
64938;SDS011;51453;47.738;7.420;2023-05-09T08:32:49;7.88;;;3.20;;
64938;SDS011;51453;47.738;7.420;2023-05-09T08:35:14;5.20;;;3.67;;
64938;SDS011;51453;47.738;7.420;2023-05-09T08:37:40;5.93;;;3.65;;
64938;SDS011;51453;47.738;7.420;2023-05-09T08:40:06;4.88;;;3.42;;
64938;SDS011;51453;47.738;7.420;2023-05-09T08:42:32;10.15;;;3.75;;
64938;SDS011;51453;47.738;7.420;2023-05-09T08:45:10;8.20;;;3.58;;
64938;SDS011;51453;47.738;7.420;2023-05-09T08:47:38;3.38;;;2.60;;
64938;SDS011;51453;47.738;7.420;2023-05-09T08:50:05;2.85;;;2.65;;
64938;SDS011;51453;47.738;7.420;2023-05-09T08:52:32;4.38;;;3.17;;
64938;SDS011;51453;47.738;7.420;2023-05-09T08:54:59;3.92;;;3.08;;
64938;SDS011;51453;47.738;7.420;2023-05-09T08:57:26;2.78;;;2.58;;
64938;SDS011;51453;47.738;7.420;2023-05-09T08:59:52;4.50;;;2.90;;
64938;SDS011;51453;47.738;7.420;2023-05-09T09:02:18;4.10;;;2.90;;
64938;SDS011;51453;47.738;7.420;2023-05-09T09:04:45;4.93;;;2.63;;
64938;SDS011;51453;47.738;7.420;2023-05-09T09:07:11;5.10;;;3.00;;
64938;SDS011;51453;47.738;7.420;2023-05-09T09:09:41;4.57;;;2.60;;
64938;SDS011;51453;47.738;7.420;2023-05-09T09:12:09;5.05;;;2.33;;
64938;SDS011;51453;47.738;7.420;2023-05-09T09:14:36;4.57;;;2.05;;
64938;SDS011;51453;47.738;7.420;2023-05-09T09:17:04;3.35;;;2.70;;
64938;SDS011;51453;47.738;7.420;2023-05-09T09:19:32;4.72;;;2.20;;
64938;SDS011;51453;47.738;7.420;2023-05-09T09:22:01;3.15;;;2.55;;
64938;SDS011;51453;47.738;7.420;2023-05-09T09:24:31;7.00;;;2.60;;
64938;SDS011;51453;47.738;7.420;2023-05-09T09:26:57;3.72;;;2.95;;
64938;SDS011;51453;47.738;7.420;2023-05-09T09:29:30;5.32;;;2.70;;
64938;SDS011;51453;47.738;7.420;2023-05-09T09:32:00;6.07;;;2.67;;
64938;SDS011;51453;47.738;7.420;2023-05-09T09:34:27;3.13;;;2.28;;
64938;SDS011;51453;47.738;7.420;2023-05-09T09:36:53;3.00;;;2.00;;
64938;SDS011;51453;47.738;7.420;2023-05-09T09:39:19;4.47;;;2.00;;
64938;SDS011;51453;47.738;7.420;2023-05-09T09:41:46;2.10;;;1.80;;
64938;SDS011;51453;47.738;7.420;2023-05-09T09:44:15;5.35;;;2.45;;
64938;SDS011;51453;47.738;7.420;2023-05-09T09:49:11;3.97;;;2.85;;
64938;SDS011;51453;47.738;7.420;2023-05-09T09:51:38;6.18;;;2.90;;
64938;SDS011;51453;47.738;7.420;2023-05-09T09:54:08;4.28;;;2.20;;
64938;SDS011;51453;47.738;7.420;2023-05-09T09:56:41;2.90;;;2.40;;
64938;SDS011;51453;47.738;7.420;2023-05-09T09:59:10;2.83;;;2.08;;
64938;SDS011;51453;47.738;7.420;2023-05-09T10:01:59;36.97;;;5.47;;
64938;SDS011;51453;47.738;7.420;2023-05-09T10:04:43;2.33;;;2.13;;
64938;SDS011;51453;47.738;7.420;2023-05-09T10:07:09;2.35;;;2.15;;
64938;SDS011;51453;47.738;7.420;2023-05-09T10:09:35;3.42;;;2.13;;
64938;SDS011;51453;47.738;7.420;2023-05-09T10:12:05;2.88;;;2.60;;
64938;SDS011;51453;47.738;7.420;2023-05-09T10:14:35;3.40;;;2.65;;
64938;SDS011;51453;47.738;7.420;2023-05-09T10:17:02;4.07;;;2.28;;
64938;SDS011;51453;47.738;7.420;2023-05-09T10:19:29;2.28;;;2.08;;
64938;SDS011;51453;47.738;7.420;2023-05-09T10:21:57;4.35;;;2.10;;
64938;SDS011;51453;47.738;7.420;2023-05-09T10:27:21;3.42;;;1.80;;
64938;SDS011;51453;47.738;7.420;2023-05-09T10:29:50;2.72;;;1.73;;
64938;SDS011;51453;47.738;7.420;2023-05-09T10:32:38;2.38;;;1.88;;
64938;SDS011;51453;47.738;7.420;2023-05-09T10:35:19;2.63;;;1.90;;
64938;SDS011;51453;47.738;7.420;2023-05-09T10:37:48;3.53;;;2.13;;
64938;SDS011;51453;47.738;7.420;2023-05-09T10:40:14;2.15;;;1.42;;
64938;SDS011;51453;47.738;7.420;2023-05-09T10:42:41;2.50;;;1.70;;
64938;SDS011;51453;47.738;7.420;2023-05-09T10:45:08;2.05;;;1.85;;
64938;SDS011;51453;47.738;7.420;2023-05-09T10:47:37;3.58;;;1.80;;
64938;SDS011;51453;47.738;7.420;2023-05-09T10:50:07;2.03;;;1.40;;
64938;SDS011;51453;47.738;7.420;2023-05-09T10:52:33;4.35;;;1.58;;
64938;SDS011;51453;47.738;7.420;2023-05-09T10:55:19;6.25;;;1.35;;
64938;SDS011;51453;47.738;7.420;2023-05-09T10:57:45;2.38;;;1.65;;
64938;SDS011;51453;47.738;7.420;2023-05-09T11:00:23;2.00;;;1.45;;
64938;SDS011;51453;47.738;7.420;2023-05-09T11:03:07;2.53;;;1.70;;
64938;SDS011;51453;47.738;7.420;2023-05-09T11:05:42;3.55;;;1.40;;
64938;SDS011;51453;47.738;7.420;2023-05-09T11:08:26;2.08;;;1.02;;
64938;SDS011;51453;47.738;7.420;2023-05-09T11:10:54;1.70;;;1.05;;
64938;SDS011;51453;47.738;7.420;2023-05-09T11:13:22;2.70;;;1.50;;
64938;SDS011;51453;47.738;7.420;2023-05-09T11:18:23;3.85;;;1.30;;
64938;SDS011;51453;47.738;7.420;2023-05-09T11:20:49;2.55;;;1.25;;
64938;SDS011;51453;47.738;7.420;2023-05-09T11:23:18;1.38;;;1.27;;
64938;SDS011;51453;47.738;7.420;2023-05-09T11:25:45;6.65;;;1.48;;
64938;SDS011;51453;47.738;7.420;2023-05-09T11:28:25;2.08;;;0.90;;
64938;SDS011;51453;47.738;7.420;2023-05-09T11:30:52;1.52;;;1.40;;
64938;SDS011;51453;47.738;7.420;2023-05-09T11:33:32;1.60;;;1.30;;
64938;SDS011;51453;47.738;7.420;2023-05-09T11:38:51;2.35;;;1.20;;
64938;SDS011;51453;47.738;7.420;2023-05-09T11:41:28;2.05;;;1.35;;
64938;SDS011;51453;47.738;7.420;2023-05-09T11:43:55;1.25;;;1.00;;
64938;SDS011;51453;47.738;7.420;2023-05-09T11:46:23;1.33;;;1.23;;
64938;SDS011;51453;47.738;7.420;2023-05-09T11:48:50;1.20;;;1.20;;
64938;SDS011;51453;47.738;7.420;2023-05-09T11:51:16;1.85;;;1.08;;
64938;SDS011;51453;47.738;7.420;2023-05-09T11:53:49;3.53;;;1.10;;
64938;SDS011;51453;47.738;7.420;2023-05-09T11:56:15;1.38;;;1.13;;
64938;SDS011;51453;47.738;7.420;2023-05-09T11:58:41;5.85;;;1.10;;
64938;SDS011;51453;47.738;7.420;2023-05-09T12:01:09;1.50;;;1.40;;
64938;SDS011;51453;47.738;7.420;2023-05-09T12:03:40;1.50;;;1.35;;
64938;SDS011;51453;47.738;7.420;2023-05-09T12:06:07;4.80;;;1.70;;
64938;SDS011;51453;47.738;7.420;2023-05-09T12:08:33;1.27;;;1.10;;
64938;SDS011;51453;47.738;7.420;2023-05-09T12:11:07;76.57;;;16.38;;
64938;SDS011;51453;47.738;7.420;2023-05-09T12:13:33;13.80;;;2.88;;
64938;SDS011;51453;47.738;7.420;2023-05-09T12:16:02;6.53;;;2.25;;
64938;SDS011;51453;47.738;7.420;2023-05-09T12:18:28;4.82;;;1.75;;
64938;SDS011;51453;47.738;7.420;2023-05-09T12:20:53;3.58;;;1.00;;
64938;SDS011;51453;47.738;7.420;2023-05-09T12:23:19;2.95;;;1.05;;
64938;SDS011;51453;47.738;7.420;2023-05-09T12:25:52;1.83;;;1.30;;
64938;SDS011;51453;47.738;7.420;2023-05-09T12:28:22;2.22;;;1.45;;
64938;SDS011;51453;47.738;7.420;2023-05-09T12:30:49;13.13;;;5.38;;
64938;SDS011;51453;47.738;7.420;2023-05-09T12:33:16;12.70;;;3.85;;
64938;SDS011;51453;47.738;7.420;2023-05-09T12:35:46;4.38;;;2.00;;
64938;SDS011;51453;47.738;7.420;2023-05-09T12:38:27;1.50;;;1.10;;
64938;SDS011;51453;47.738;7.420;2023-05-09T12:41:06;2.10;;;1.10;;
64938;SDS011;51453;47.738;7.420;2023-05-09T12:43:33;1.50;;;1.40;;
64938;SDS011;51453;47.738;7.420;2023-05-09T12:46:01;1.50;;;1.17;;
64938;SDS011;51453;47.738;7.420;2023-05-09T12:48:28;3.60;;;1.48;;
64938;SDS011;51453;47.738;7.420;2023-05-09T12:53:27;7.40;;;2.70;;
64938;SDS011;51453;47.738;7.420;2023-05-09T12:56:02;2.92;;;1.50;;
64938;SDS011;51453;47.738;7.420;2023-05-09T12:58:30;2.72;;;1.30;;
64938;SDS011;51453;47.738;7.420;2023-05-09T13:00:56;4.10;;;1.73;;
64938;SDS011;51453;47.738;7.420;2023-05-09T13:03:26;2.35;;;1.40;;
64938;SDS011;51453;47.738;7.420;2023-05-09T13:06:00;1.25;;;1.20;;
64938;SDS011;51453;47.738;7.420;2023-05-09T13:08:27;2.05;;;1.20;;
64938;SDS011;51453;47.738;7.420;2023-05-09T13:10:53;3.33;;;1.23;;
64938;SDS011;51453;47.738;7.420;2023-05-09T13:13:19;2.83;;;1.40;;
64938;SDS011;51453;47.738;7.420;2023-05-09T13:15:47;2.03;;;1.48;;
64938;SDS011;51453;47.738;7.420;2023-05-09T13:18:12;4.28;;;1.48;;
64938;SDS011;51453;47.738;7.420;2023-05-09T13:20:38;3.63;;;1.52;;
64938;SDS011;51453;47.738;7.420;2023-05-09T13:23:04;2.95;;;1.30;;
64938;SDS011;51453;47.738;7.420;2023-05-09T13:25:30;5.22;;;1.40;;
64938;SDS011;51453;47.738;7.420;2023-05-09T13:27:55;2.47;;;1.65;;
64938;SDS011;51453;47.738;7.420;2023-05-09T13:30:21;3.22;;;1.58;;
64938;SDS011;51453;47.738;7.420;2023-05-09T13:32:47;2.63;;;1.58;;
64938;SDS011;51453;47.738;7.420;2023-05-09T13:35:13;3.13;;;1.50;;
64938;SDS011;51453;47.738;7.420;2023-05-09T13:37:39;1.80;;;1.70;;
64938;SDS011;51453;47.738;7.420;2023-05-09T13:40:05;2.05;;;1.80;;
64938;SDS011;51453;47.738;7.420;2023-05-09T13:42:32;1.45;;;1.35;;
64938;SDS011;51453;47.738;7.420;2023-05-09T13:44:58;2.65;;;1.60;;
64938;SDS011;51453;47.738;7.420;2023-05-09T13:47:24;4.25;;;1.88;;
64938;SDS011;51453;47.738;7.420;2023-05-09T13:49:50;2.30;;;2.10;;
64938;SDS011;51453;47.738;7.420;2023-05-09T13:52:16;1.55;;;1.45;;
64938;SDS011;51453;47.738;7.420;2023-05-09T13:54:42;1.70;;;1.60;;
64938;SDS011;51453;47.738;7.420;2023-05-09T13:57:08;1.83;;;1.65;;
64938;SDS011;51453;47.738;7.420;2023-05-09T13:59:34;2.60;;;2.40;;
64938;SDS011;51453;47.738;7.420;2023-05-09T14:01:59;4.10;;;3.17;;
64938;SDS011;51453;47.738;7.420;2023-05-09T14:04:28;2.85;;;2.60;;
64938;SDS011;51453;47.738;7.420;2023-05-09T14:06:58;4.80;;;2.90;;
64938;SDS011;51453;47.738;7.420;2023-05-09T14:09:25;3.90;;;2.40;;
64938;SDS011;51453;47.738;7.420;2023-05-09T14:11:52;4.47;;;2.63;;
64938;SDS011;51453;47.738;7.420;2023-05-09T14:14:19;2.70;;;2.50;;
64938;SDS011;51453;47.738;7.420;2023-05-09T14:16:45;2.80;;;2.50;;
64938;SDS011;51453;47.738;7.420;2023-05-09T14:19:11;2.05;;;1.95;;
64938;SDS011;51453;47.738;7.420;2023-05-09T14:21:39;2.45;;;1.80;;
64938;SDS011;51453;47.738;7.420;2023-05-09T14:24:08;1.80;;;1.70;;
64938;SDS011;51453;47.738;7.420;2023-05-09T14:26:35;3.03;;;1.65;;
64938;SDS011;51453;47.738;7.420;2023-05-09T14:29:02;3.42;;;2.17;;
64938;SDS011;51453;47.738;7.420;2023-05-09T14:31:28;3.17;;;2.50;;
64938;SDS011;51453;47.738;7.420;2023-05-09T14:33:54;4.10;;;3.42;;
64938;SDS011;51453;47.738;7.420;2023-05-09T14:36:19;3.60;;;3.30;;
64938;SDS011;51453;47.738;7.420;2023-05-09T14:38:45;4.03;;;2.17;;
64938;SDS011;51453;47.738;7.420;2023-05-09T14:41:12;8.50;;;2.58;;
64938;SDS011;51453;47.738;7.420;2023-05-09T14:43:38;7.55;;;2.75;;
64938;SDS011;51453;47.738;7.420;2023-05-09T14:46:04;13.85;;;2.28;;
64938;SDS011;51453;47.738;7.420;2023-05-09T14:48:30;7.85;;;2.40;;
64938;SDS011;51453;47.738;7.420;2023-05-09T14:50:56;5.40;;;2.50;;
64938;SDS011;51453;47.738;7.420;2023-05-09T14:53:22;4.00;;;3.10;;
64938;SDS011;51453;47.738;7.420;2023-05-09T14:55:51;3.75;;;2.80;;
64938;SDS011;51453;47.738;7.420;2023-05-09T14:58:16;3.05;;;2.17;;
64938;SDS011;51453;47.738;7.420;2023-05-09T15:00:45;2.22;;;1.85;;